Time;durP1;ratioP1;P1;durP2;ratioP2;P2;SDS_P1;SDS_P2;PMS_P1;PMS_P2;Temp;Humidity;BMP_temperature;BMP_pressure;BME280_temperature;BME280_humidity;BME280_pressure;Samples;Min_cycle;Max_cycle;Signal;HPM_P1;HPM_P2
2021/11/21 00:01:56;;;;;;;27.95;5.82;;;;;;;;;;5027252;28;20029;-59
2021/11/21 00:04:21;;;;;;;33.28;6.28;;;;;;;;;;5018239;28;20473;-59
2021/11/21 00:06:47;;;;;;;36.78;6.95;;;;;;;;;;5016088;28;20029;-59
2021/11/21 00:09:12;;;;;;;25.65;4.88;;;;;;;;;;5012493;28;20117;-59
2021/11/21 00:11:38;;;;;;;22.23;4.50;;;;;;;;;;5020534;28;20033;-59
2021/11/21 00:14:06;;;;;;;28.38;4.60;;;;;;;;;;5027631;28;20104;-58
2021/11/21 00:16:32;;;;;;;26.77;4.88;;;;;;;;;;5024504;28;20067;-59
2021/11/21 00:18:57;;;;;;;9.82;3.42;;;;;;;;;;5019164;28;20069;-59
2021/11/21 00:21:23;;;;;;;23.05;4.32;;;;;;;;;;5017879;28;20033;-60
2021/11/21 00:23:48;;;;;;;29.30;4.32;;;;;;;;;;5023031;28;20040;-59
2021/11/21 00:26:14;;;;;;;24.45;3.90;;;;;;;;;;5024496;28;20075;-60
2021/11/21 00:28:39;;;;;;;27.25;3.65;;;;;;;;;;5021291;28;20091;-59
2021/11/21 00:31:05;;;;;;;26.65;4.22;;;;;;;;;;5016982;28;20038;-59
2021/11/21 00:33:32;;;;;;;30.17;5.15;;;;;;;;;;5018198;28;20064;-60
2021/11/21 00:35:58;;;;;;;28.77;4.65;;;;;;;;;;5020029;28;20037;-60
2021/11/21 00:38:23;;;;;;;22.80;5.22;;;;;;;;;;5016901;28;20022;-59
2021/11/21 00:40:49;;;;;;;30.52;4.78;;;;;;;;;;5022090;28;20416;-59
2021/11/21 00:43:14;;;;;;;43.65;6.10;;;;;;;;;;5016200;28;20029;-59
2021/11/21 00:45:40;;;;;;;37.53;4.15;;;;;;;;;;5022362;28;20033;-59
2021/11/21 00:48:06;;;;;;;20.35;4.70;;;;;;;;;;5024625;28;20064;-59
2021/11/21 00:50:32;;;;;;;29.08;4.88;;;;;;;;;;5020987;28;20484;-60
2021/11/21 00:53:03;;;;;;;37.85;4.30;;;;;;;;;;5023593;28;20071;-60
2021/11/21 00:55:35;;;;;;;13.45;3.60;;;;;;;;;;5015688;28;20036;-59
2021/11/21 00:58:03;;;;;;;38.05;4.57;;;;;;;;;;5017008;28;20109;-59
2021/11/21 01:00:30;;;;;;;20.13;4.30;;;;;;;;;;5020734;28;20026;-59
2021/11/21 01:02:56;;;;;;;26.40;5.00;;;;;;;;;;5016404;28;20072;-58
2021/11/21 01:05:21;;;;;;;22.90;4.25;;;;;;;;;;5023533;28;20530;-58
2021/11/21 01:07:47;;;;;;;22.02;3.50;;;;;;;;;;5017244;28;20066;-58
2021/11/21 01:10:16;;;;;;;36.47;4.65;;;;;;;;;;5013341;28;20515;-59
2021/11/21 01:12:42;;;;;;;27.80;5.30;;;;;;;;;;5018546;28;20037;-59
2021/11/21 01:15:12;;;;;;;32.33;5.65;;;;;;;;;;5019065;28;20456;-59
2021/11/21 01:17:37;;;;;;;16.45;3.85;;;;;;;;;;5017285;28;20036;-58
2021/11/21 01:20:04;;;;;;;26.05;4.97;;;;;;;;;;5017689;28;20030;-59
2021/11/21 01:22:32;;;;;;;27.40;5.97;;;;;;;;;;5017537;28;20095;-59
2021/11/21 01:24:58;;;;;;;39.15;5.00;;;;;;;;;;5019135;28;20070;-59
2021/11/21 01:27:24;;;;;;;18.73;3.28;;;;;;;;;;5021435;28;20321;-59
2021/11/21 01:29:50;;;;;;;29.20;4.20;;;;;;;;;;5018194;28;20025;-59
2021/11/21 01:32:16;;;;;;;31.33;4.32;;;;;;;;;;5018800;28;20420;-59
2021/11/21 01:34:41;;;;;;;27.65;4.55;;;;;;;;;;5015673;28;20048;-58
2021/11/21 01:37:07;;;;;;;32.97;4.85;;;;;;;;;;5016110;28;20069;-59
2021/11/21 01:39:33;;;;;;;25.33;4.68;;;;;;;;;;5022563;28;20037;-58
2021/11/21 01:41:59;;;;;;;26.77;4.15;;;;;;;;;;5020160;28;20514;-58
2021/11/21 01:44:24;;;;;;;22.73;3.92;;;;;;;;;;5018792;28;20052;-59
2021/11/21 01:46:51;;;;;;;17.60;4.75;;;;;;;;;;5018359;28;20050;-59
2021/11/21 01:49:18;;;;;;;19.60;3.53;;;;;;;;;;5021379;28;20083;-59
2021/11/21 01:51:45;;;;;;;26.73;3.72;;;;;;;;;;5019279;28;20469;-58
2021/11/21 01:54:12;;;;;;;28.67;5.22;;;;;;;;;;5017217;28;20571;-58
2021/11/21 01:56:39;;;;;;;28.08;5.03;;;;;;;;;;5012557;28;20037;-59
2021/11/21 01:59:05;;;;;;;26.52;4.03;;;;;;;;;;5013474;28;20017;-59
2021/11/21 02:01:30;;;;;;;12.75;3.08;;;;;;;;;;5013146;28;20063;-58
2021/11/21 02:03:57;;;;;;;22.55;3.25;;;;;;;;;;5016331;28;20477;-58
2021/11/21 02:06:23;;;;;;;19.95;2.88;;;;;;;;;;5015841;28;20037;-59
2021/11/21 02:08:53;;;;;;;33.47;3.42;;;;;;;;;;5016406;28;20575;-57
2021/11/21 02:11:23;;;;;;;13.70;2.83;;;;;;;;;;5015023;28;20041;-59
2021/11/21 02:13:50;;;;;;;24.92;3.15;;;;;;;;;;5016507;28;20372;-59
2021/11/21 02:16:21;;;;;;;22.25;3.65;;;;;;;;;;5016593;28;20037;-59
2021/11/21 02:18:47;;;;;;;14.43;2.63;;;;;;;;;;5014895;28;20521;-59
2021/11/21 02:21:15;;;;;;;31.98;3.70;;;;;;;;;;5014050;28;20030;-59
2021/11/21 02:23:41;;;;;;;25.92;2.47;;;;;;;;;;5019615;28;20041;-59
2021/11/21 02:26:07;;;;;;;23.27;3.53;;;;;;;;;;5021283;28;20037;-59
2021/11/21 02:28:34;;;;;;;22.98;2.60;;;;;;;;;;5018984;28;20579;-58
2021/11/21 02:31:00;;;;;;;30.05;3.58;;;;;;;;;;5018167;28;20037;-59
2021/11/21 02:33:26;;;;;;;28.67;3.03;;;;;;;;;;5020956;28;20030;-59
2021/11/21 02:35:55;;;;;;;23.33;2.72;;;;;;;;;;5018555;28;20449;-59
2021/11/21 02:38:23;;;;;;;22.30;3.13;;;;;;;;;;5020648;28;20543;-59
2021/11/21 02:40:49;;;;;;;27.83;2.67;;;;;;;;;;5013500;28;20491;-58
2021/11/21 02:43:19;;;;;;;22.27;2.50;;;;;;;;;;5015336;28;20570;-59
2021/11/21 02:45:50;;;;;;;9.13;2.25;;;;;;;;;;5022893;28;20133;-58
2021/11/21 02:48:16;;;;;;;30.70;3.22;;;;;;;;;;5016831;28;20516;-58
2021/11/21 02:50:42;;;;;;;23.15;4.10;;;;;;;;;;5019233;28;20052;-59
2021/11/21 02:53:08;;;;;;;22.25;3.17;;;;;;;;;;5019191;28;20033;-59
2021/11/21 02:55:34;;;;;;;21.23;4.25;;;;;;;;;;5023112;28;20022;-59
2021/11/21 02:58:00;;;;;;;24.45;4.47;;;;;;;;;;5017030;28;20061;-59
2021/11/21 03:00:26;;;;;;;25.67;4.47;;;;;;;;;;5020426;28;20304;-59
2021/11/21 03:02:52;;;;;;;19.65;3.88;;;;;;;;;;5015846;28;20022;-59
2021/11/21 03:05:19;;;;;;;17.85;3.10;;;;;;;;;;5022664;28;20124;-58
2021/11/21 03:07:46;;;;;;;29.88;3.63;;;;;;;;;;5020694;28;20452;-59
2021/11/21 03:10:14;;;;;;;31.60;3.97;;;;;;;;;;5021142;28;20038;-59
2021/11/21 03:12:41;;;;;;;22.23;3.40;;;;;;;;;;5025489;28;20025;-59
2021/11/21 03:15:07;;;;;;;18.27;2.88;;;;;;;;;;5019933;28;20030;-59
2021/11/21 03:17:33;;;;;;;28.85;3.05;;;;;;;;;;5021158;28;20052;-59
2021/11/21 03:19:58;;;;;;;21.67;3.40;;;;;;;;;;5020816;28;20032;-59
2021/11/21 03:22:24;;;;;;;20.00;3.53;;;;;;;;;;5023968;28;20079;-59
2021/11/21 03:24:49;;;;;;;16.75;2.38;;;;;;;;;;5019439;28;20408;-59
2021/11/21 03:27:15;;;;;;;11.52;2.03;;;;;;;;;;5018455;28;20037;-59
2021/11/21 03:29:41;;;;;;;24.92;3.83;;;;;;;;;;5026570;28;20034;-58
2021/11/21 03:32:07;;;;;;;25.85;4.05;;;;;;;;;;5019341;28;20068;-59
2021/11/21 03:34:36;;;;;;;19.35;3.08;;;;;;;;;;5020336;28;20053;-59
2021/11/21 03:37:02;;;;;;;28.02;2.65;;;;;;;;;;5019588;28;20516;-58
2021/11/21 03:39:27;;;;;;;18.65;2.50;;;;;;;;;;4998905;28;20038;-58
2021/11/21 03:41:53;;;;;;;9.45;1.65;;;;;;;;;;5015928;28;20026;-59
2021/11/21 03:44:19;;;;;;;22.50;2.53;;;;;;;;;;5020028;28;20034;-59
2021/11/21 03:46:44;;;;;;;25.38;2.53;;;;;;;;;;5018919;28;20077;-59
2021/11/21 03:49:10;;;;;;;16.38;1.90;;;;;;;;;;5021788;28;20484;-59
2021/11/21 03:51:35;;;;;;;28.58;2.70;;;;;;;;;;5022726;28;20392;-59
2021/11/21 03:54:01;;;;;;;14.57;2.10;;;;;;;;;;5021773;28;20485;-59
2021/11/21 03:56:27;;;;;;;15.25;2.08;;;;;;;;;;5013182;28;20034;-59
2021/11/21 03:58:52;;;;;;;19.30;1.88;;;;;;;;;;5019655;28;20046;-59
2021/11/21 04:01:18;;;;;;;19.02;2.63;;;;;;;;;;5013889;28;20417;-58
2021/11/21 04:03:45;;;;;;;22.17;2.42;;;;;;;;;;5019511;28;20408;-58
2021/11/21 04:06:11;;;;;;;20.65;2.78;;;;;;;;;;5021485;28;20092;-59
2021/11/21 04:08:37;;;;;;;20.35;2.90;;;;;;;;;;5017921;28;20026;-58
2021/11/21 04:11:03;;;;;;;25.67;2.95;;;;;;;;;;5014680;28;20512;-59
2021/11/21 04:13:29;;;;;;;17.77;1.98;;;;;;;;;;5014072;28;20030;-58
2021/11/21 04:15:54;;;;;;;21.17;2.55;;;;;;;;;;5022232;28;20128;-58
2021/11/21 04:18:20;;;;;;;29.65;3.15;;;;;;;;;;5020368;28;20412;-58
2021/11/21 04:20:46;;;;;;;27.17;2.55;;;;;;;;;;5024382;28;20021;-59
2021/11/21 04:23:12;;;;;;;4.68;1.05;;;;;;;;;;5025258;28;20036;-59
2021/11/21 04:25:37;;;;;;;12.95;1.88;;;;;;;;;;5020565;28;20025;-58
2021/11/21 04:28:03;;;;;;;25.30;3.30;;;;;;;;;;5024885;28;20106;-58
2021/11/21 04:30:29;;;;;;;18.05;2.20;;;;;;;;;;5023305;28;20034;-59
2021/11/21 04:32:55;;;;;;;25.83;1.88;;;;;;;;;;5026419;28;20472;-58
2021/11/21 04:35:21;;;;;;;25.30;2.15;;;;;;;;;;5021250;28;20113;-59
2021/11/21 04:37:49;;;;;;;26.30;2.35;;;;;;;;;;5023614;28;20041;-58
2021/11/21 04:40:16;;;;;;;16.90;1.55;;;;;;;;;;5024593;28;20033;-59
2021/11/21 04:42:43;;;;;;;42.25;2.33;;;;;;;;;;5019732;28;20055;-58
2021/11/21 04:45:10;;;;;;;16.23;1.50;;;;;;;;;;5019055;28;20065;-59
2021/11/21 04:47:36;;;;;;;27.42;2.92;;;;;;;;;;5018407;28;20061;-59
2021/11/21 04:50:02;;;;;;;7.45;1.52;;;;;;;;;;5020790;28;20035;-58
2021/11/21 04:52:27;;;;;;;25.13;2.33;;;;;;;;;;5021946;28;20049;-59
2021/11/21 04:54:53;;;;;;;28.80;2.17;;;;;;;;;;5017793;28;20038;-59
2021/11/21 04:57:19;;;;;;;27.40;3.00;;;;;;;;;;5017642;28;20069;-59
2021/11/21 04:59:45;;;;;;;17.65;2.65;;;;;;;;;;5019365;28;20033;-59
2021/11/21 05:02:10;;;;;;;15.20;1.95;;;;;;;;;;5014468;28;20404;-59
2021/11/21 05:04:36;;;;;;;23.08;3.08;;;;;;;;;;5021427;28;20234;-59
2021/11/21 05:07:02;;;;;;;19.70;2.78;;;;;;;;;;5018384;28;20052;-59
2021/11/21 05:09:28;;;;;;;15.35;2.47;;;;;;;;;;5021914;28;20052;-59
2021/11/21 05:11:53;;;;;;;24.67;2.75;;;;;;;;;;5014959;28;20026;-59
2021/11/21 05:14:21;;;;;;;20.45;1.42;;;;;;;;;;5017931;28;20427;-59
2021/11/21 05:16:47;;;;;;;31.25;2.72;;;;;;;;;;5015560;28;20030;-60
2021/11/21 05:19:13;;;;;;;31.70;2.78;;;;;;;;;;5016662;28;20454;-59
2021/11/21 05:21:39;;;;;;;26.42;3.50;;;;;;;;;;5017612;28;20096;-60
2021/11/21 05:24:05;;;;;;;22.40;2.15;;;;;;;;;;5016847;28;20042;-59
2021/11/21 05:26:31;;;;;;;12.57;2.17;;;;;;;;;;5021017;28;20095;-59
2021/11/21 05:28:57;;;;;;;51.10;3.65;;;;;;;;;;5019590;28;20385;-59
2021/11/21 05:31:24;;;;;;;27.83;1.95;;;;;;;;;;5012638;28;20462;-59
2021/11/21 05:33:49;;;;;;;19.73;1.65;;;;;;;;;;5011635;28;20512;-59
2021/11/21 05:36:15;;;;;;;28.42;2.22;;;;;;;;;;5020024;28;20053;-59
2021/11/21 05:38:41;;;;;;;14.90;2.97;;;;;;;;;;5021718;28;20033;-59
2021/11/21 05:41:07;;;;;;;26.38;2.70;;;;;;;;;;5019991;28;20525;-59
2021/11/21 05:43:32;;;;;;;55.75;3.83;;;;;;;;;;5013584;28;20060;-60
2021/11/21 05:45:58;;;;;;;27.27;2.40;;;;;;;;;;5022216;28;20025;-60
2021/11/21 05:48:24;;;;;;;19.15;1.95;;;;;;;;;;5016445;28;20052;-59
2021/11/21 05:50:50;;;;;;;24.67;3.60;;;;;;;;;;5018066;28;20026;-60
2021/11/21 05:53:15;;;;;;;21.70;2.40;;;;;;;;;;5014548;28;20033;-59
2021/11/21 05:55:41;;;;;;;12.63;1.88;;;;;;;;;;5018945;28;20448;-59
2021/11/21 05:58:07;;;;;;;16.48;2.05;;;;;;;;;;5019894;28;20033;-59
2021/11/21 06:00:32;;;;;;;18.60;1.80;;;;;;;;;;5017660;28;20041;-60
2021/11/21 06:02:59;;;;;;;27.17;2.40;;;;;;;;;;5023367;28;20029;-59
2021/11/21 06:05:25;;;;;;;15.05;2.55;;;;;;;;;;5017230;28;20040;-60
2021/11/21 06:07:50;;;;;;;34.58;2.22;;;;;;;;;;5016577;28;20033;-60
2021/11/21 06:10:16;;;;;;;32.63;2.55;;;;;;;;;;5024257;28;20030;-59
2021/11/21 06:12:42;;;;;;;16.80;2.15;;;;;;;;;;5024622;28;20029;-59
2021/11/21 06:15:09;;;;;;;34.85;2.30;;;;;;;;;;5018437;28;20049;-59
2021/11/21 06:17:34;;;;;;;22.17;2.72;;;;;;;;;;5017550;28;20121;-60
2021/11/21 06:20:00;;;;;;;30.92;3.20;;;;;;;;;;5022113;28;20116;-59
2021/11/21 06:22:26;;;;;;;24.15;2.25;;;;;;;;;;5019998;28;20088;-59
2021/11/21 06:24:51;;;;;;;18.55;1.92;;;;;;;;;;5025719;28;20079;-59
2021/11/21 06:27:17;;;;;;;23.42;1.95;;;;;;;;;;5027486;28;20033;-59
2021/11/21 06:29:43;;;;;;;16.63;1.80;;;;;;;;;;5024628;28;20033;-59
2021/11/21 06:32:09;;;;;;;15.23;1.70;;;;;;;;;;5022800;28;20033;-59
2021/11/21 06:34:35;;;;;;;21.65;1.58;;;;;;;;;;5022869;28;20037;-59
2021/11/21 06:37:02;;;;;;;21.58;2.45;;;;;;;;;;5022588;28;20049;-60
2021/11/21 06:39:27;;;;;;;24.02;2.65;;;;;;;;;;5021865;28;20048;-59
2021/11/21 06:41:53;;;;;;;11.38;1.95;;;;;;;;;;5019900;28;20033;-59
2021/11/21 06:44:18;;;;;;;12.18;2.15;;;;;;;;;;5021947;28;20065;-59
2021/11/21 06:46:44;;;;;;;18.48;1.40;;;;;;;;;;5021602;28;20049;-60
2021/11/21 06:49:10;;;;;;;24.10;2.17;;;;;;;;;;5022312;28;20034;-60
2021/11/21 06:51:40;;;;;;;22.25;2.55;;;;;;;;;;5021998;28;20116;-59
2021/11/21 06:54:07;;;;;;;20.75;2.30;;;;;;;;;;5017061;28;20041;-59
2021/11/21 06:56:33;;;;;;;21.85;1.60;;;;;;;;;;5020731;28;20455;-60
2021/11/21 06:58:58;;;;;;;24.60;2.72;;;;;;;;;;5020819;28;20026;-59
2021/11/21 07:01:24;;;;;;;12.90;1.60;;;;;;;;;;5015242;28;20029;-60
2021/11/21 07:03:50;;;;;;;9.05;2.00;;;;;;;;;;5022593;28;20033;-60
2021/11/21 07:06:36;;;;;;;33.22;2.53;;;;;;;;;;5018617;28;20096;-59
2021/11/21 07:09:08;;;;;;;11.70;1.65;;;;;;;;;;5016246;28;20065;-59
2021/11/21 07:11:33;;;;;;;10.73;1.47;;;;;;;;;;5023500;28;20451;-59
2021/11/21 07:13:59;;;;;;;21.70;1.75;;;;;;;;;;5019401;28;20034;-58
2021/11/21 07:16:25;;;;;;;17.67;2.03;;;;;;;;;;5019565;28;20041;-59
2021/11/21 07:18:51;;;;;;;14.40;1.63;;;;;;;;;;5019256;28;20087;-59
2021/11/21 07:21:17;;;;;;;13.82;1.70;;;;;;;;;;5017549;28;20049;-60
2021/11/21 07:23:44;;;;;;;19.83;2.15;;;;;;;;;;5018961;28;20036;-59
2021/11/21 07:26:09;;;;;;;14.77;2.08;;;;;;;;;;5017133;28;20080;-59
2021/11/21 07:28:35;;;;;;;19.23;1.55;;;;;;;;;;5020537;28;20045;-60
2021/11/21 07:31:01;;;;;;;22.13;1.90;;;;;;;;;;5018699;28;20029;-59
2021/11/21 07:33:26;;;;;;;17.98;2.15;;;;;;;;;;5011931;28;20247;-60
2021/11/21 07:35:53;;;;;;;16.55;1.63;;;;;;;;;;5015322;28;20034;-59
2021/11/21 07:38:21;;;;;;;29.17;2.22;;;;;;;;;;5015861;28;20037;-60
2021/11/21 07:40:47;;;;;;;15.13;1.65;;;;;;;;;;5015667;28;20033;-59
2021/11/21 07:43:13;;;;;;;31.05;2.17;;;;;;;;;;5024175;28;20469;-59
2021/11/21 07:45:39;;;;;;;20.45;2.53;;;;;;;;;;5020179;28;20412;-60
2021/11/21 07:48:05;;;;;;;19.85;2.22;;;;;;;;;;5017703;28;20053;-59
2021/11/21 07:50:31;;;;;;;18.80;2.15;;;;;;;;;;5022569;28;20037;-60
2021/11/21 07:52:57;;;;;;;27.77;2.50;;;;;;;;;;5024642;28;20408;-60
2021/11/21 07:55:22;;;;;;;21.27;2.60;;;;;;;;;;5027538;28;20037;-58
2021/11/21 07:57:48;;;;;;;23.30;2.47;;;;;;;;;;5027279;28;20416;-60
2021/11/21 08:00:14;;;;;;;25.15;2.67;;;;;;;;;;5017907;28;20025;-59
2021/11/21 08:02:40;;;;;;;15.20;1.98;;;;;;;;;;5019428;28;20083;-59
2021/11/21 08:05:06;;;;;;;23.48;2.45;;;;;;;;;;5015285;28;20037;-59
2021/11/21 08:07:32;;;;;;;34.38;2.33;;;;;;;;;;5017398;28;20580;-59
2021/11/21 08:09:58;;;;;;;28.50;2.28;;;;;;;;;;5014681;28;20112;-59
2021/11/21 08:12:24;;;;;;;19.05;2.90;;;;;;;;;;5018728;28;20057;-60
2021/11/21 08:14:50;;;;;;;25.50;2.58;;;;;;;;;;5022438;28;20447;-60
2021/11/21 08:17:17;;;;;;;19.90;2.22;;;;;;;;;;5015770;28;20033;-60
2021/11/21 08:19:43;;;;;;;21.42;3.22;;;;;;;;;;5017535;28;20032;-60
2021/11/21 08:22:09;;;;;;;17.65;2.00;;;;;;;;;;5010344;28;20033;-60
2021/11/21 08:24:34;;;;;;;17.13;1.90;;;;;;;;;;5012887;28;20080;-59
2021/11/21 08:27:00;;;;;;;12.57;2.50;;;;;;;;;;5019656;28;20037;-59
2021/11/21 08:29:25;;;;;;;17.80;1.30;;;;;;;;;;5014374;28;20026;-59
2021/11/21 08:31:52;;;;;;;26.30;1.90;;;;;;;;;;5017020;28;20572;-59
2021/11/21 08:34:18;;;;;;;23.13;1.83;;;;;;;;;;5016970;28;20033;-59
2021/11/21 08:36:44;;;;;;;13.82;2.28;;;;;;;;;;5025324;28;20042;-60
2021/11/21 08:39:10;;;;;;;15.43;2.10;;;;;;;;;;5017561;28;20547;-60
2021/11/21 08:41:36;;;;;;;29.77;2.60;;;;;;;;;;5017701;28;20030;-60
2021/11/21 08:44:02;;;;;;;15.70;2.13;;;;;;;;;;5019743;28;20620;-60
2021/11/21 08:46:27;;;;;;;29.42;3.05;;;;;;;;;;5021333;28;20168;-60
2021/11/21 08:48:54;;;;;;;29.40;3.22;;;;;;;;;;5019780;28;20037;-60
2021/11/21 08:51:22;;;;;;;27.38;2.70;;;;;;;;;;5016448;28;20049;-60
2021/11/21 08:53:48;;;;;;;20.13;1.77;;;;;;;;;;5017879;28;20525;-60
2021/11/21 08:56:15;;;;;;;25.60;2.85;;;;;;;;;;5019281;28;20025;-60
2021/11/21 08:58:41;;;;;;;13.80;2.17;;;;;;;;;;5017261;28;20079;-60
2021/11/21 09:01:07;;;;;;;21.95;2.72;;;;;;;;;;5019433;28;20498;-60
2021/11/21 09:03:33;;;;;;;14.48;2.15;;;;;;;;;;5022027;28;20033;-60
2021/11/21 09:05:59;;;;;;;14.40;1.92;;;;;;;;;;5011368;28;20047;-60
2021/11/21 09:08:25;;;;;;;24.90;2.35;;;;;;;;;;5013391;28;20033;-60
2021/11/21 09:10:52;;;;;;;12.95;2.60;;;;;;;;;;5014611;28;20073;-60
2021/11/21 09:13:17;;;;;;;16.65;1.92;;;;;;;;;;5016984;28;20243;-59
2021/11/21 09:15:43;;;;;;;11.52;1.80;;;;;;;;;;5023963;28;20543;-57
2021/11/21 09:18:09;;;;;;;15.00;1.92;;;;;;;;;;5020145;28;20037;-58
2021/11/21 09:20:35;;;;;;;18.15;1.77;;;;;;;;;;5015766;28;20397;-58
2021/11/21 09:23:03;;;;;;;22.88;2.15;;;;;;;;;;5018894;28;20057;-58
2021/11/21 09:25:30;;;;;;;12.35;1.75;;;;;;;;;;5016139;28;20455;-58
2021/11/21 09:27:56;;;;;;;20.38;2.20;;;;;;;;;;5014797;28;20057;-58
2021/11/21 09:30:23;;;;;;;20.48;2.33;;;;;;;;;;5021017;28;20072;-58
2021/11/21 09:32:49;;;;;;;26.23;2.10;;;;;;;;;;5016712;28;20141;-58
2021/11/21 09:35:14;;;;;;;6.75;1.40;;;;;;;;;;5021985;28;20021;-58
2021/11/21 09:37:41;;;;;;;26.70;2.22;;;;;;;;;;5027945;28;20051;-58
2021/11/21 09:40:09;;;;;;;19.73;2.13;;;;;;;;;;5017138;28;20497;-58
2021/11/21 09:42:35;;;;;;;20.70;2.65;;;;;;;;;;5014044;28;20030;-58
2021/11/21 09:45:02;;;;;;;27.77;2.20;;;;;;;;;;5017148;28;20095;-58
2021/11/21 09:47:28;;;;;;;20.50;3.00;;;;;;;;;;5012700;28;20067;-58
2021/11/21 09:49:53;;;;;;;13.35;2.30;;;;;;;;;;5020998;28;20033;-60
2021/11/21 09:52:19;;;;;;;12.50;1.77;;;;;;;;;;5017399;28;20029;-58
2021/11/21 09:54:45;;;;;;;11.20;1.80;;;;;;;;;;5020739;28;20068;-58
2021/11/21 09:57:10;;;;;;;17.33;2.03;;;;;;;;;;5018779;28;20053;-58
2021/11/21 10:00:02;;;;;;;18.35;2.55;;;;;;;;;;5015611;28;20043;-58
2021/11/21 10:02:49;;;;;;;14.50;1.92;;;;;;;;;;5015056;28;20033;-58
2021/11/21 10:05:27;;;;;;;22.92;3.08;;;;;;;;;;5014047;28;20138;-58
2021/11/21 10:08:10;;;;;;;12.00;1.88;;;;;;;;;;5021165;28;20053;-58
2021/11/21 10:10:49;;;;;;;17.75;3.17;;;;;;;;;;5019563;28;20123;-58
2021/11/21 10:13:41;;;;;;;25.83;3.03;;;;;;;;;;5016710;28;20029;-59
2021/11/21 10:16:16;;;;;;;34.63;2.83;;;;;;;;;;5015815;28;20033;-59
2021/11/21 10:18:50;;;;;;;25.90;3.35;;;;;;;;;;5011283;28;20064;-60
2021/11/21 10:21:17;;;;;;;14.68;2.85;;;;;;;;;;5014649;28;20392;-59
2021/11/21 10:23:44;;;;;;;18.92;2.55;;;;;;;;;;5011972;28;20037;-59
2021/11/21 10:26:21;;;;;;;14.30;2.38;;;;;;;;;;5015325;28;20045;-59
2021/11/21 10:28:47;;;;;;;21.60;2.22;;;;;;;;;;5020111;28;20493;-59
2021/11/21 10:31:15;;;;;;;7.85;2.03;;;;;;;;;;5020356;28;20056;-59
2021/11/21 10:33:53;;;;;;;15.98;3.20;;;;;;;;;;5020755;28;20127;-59
2021/11/21 10:36:26;;;;;;;14.65;2.05;;;;;;;;;;5021668;28;20028;-59
2021/11/21 10:39:00;;;;;;;17.00;2.08;;;;;;;;;;5018226;28;20026;-60
2021/11/21 10:41:32;;;;;;;9.98;1.83;;;;;;;;;;5016902;28;20349;-60
2021/11/21 10:44:09;;;;;;;12.82;1.77;;;;;;;;;;5010348;28;20077;-60
2021/11/21 10:46:47;;;;;;;17.65;1.65;;;;;;;;;;5018971;28;20149;-59
2021/11/21 10:49:18;;;;;;;8.25;0.90;;;;;;;;;;5015090;28;20040;-58
2021/11/21 10:51:45;;;;;;;19.92;1.52;;;;;;;;;;5019083;28;20202;-58
2021/11/21 10:54:23;;;;;;;15.80;2.25;;;;;;;;;;5013194;28;20088;-58
2021/11/21 10:56:55;;;;;;;8.75;1.98;;;;;;;;;;5015650;28;20018;-58
2021/11/21 10:59:42;;;;;;;11.18;1.40;;;;;;;;;;5016486;28;20558;-58
2021/11/21 11:02:19;;;;;;;7.05;1.30;;;;;;;;;;5019931;28;20041;-58
2021/11/21 11:05:03;;;;;;;23.35;1.50;;;;;;;;;;5017121;28;20838;-58
2021/11/21 11:07:32;;;;;;;16.70;2.90;;;;;;;;;;5017428;28;20033;-58
2021/11/21 11:09:58;;;;;;;11.07;1.58;;;;;;;;;;5017271;28;20041;-58
2021/11/21 11:12:25;;;;;;;15.38;1.70;;;;;;;;;;5015858;28;20105;-58
2021/11/21 11:14:53;;;;;;;16.13;1.98;;;;;;;;;;5023842;28;20057;-58
2021/11/21 11:17:19;;;;;;;16.52;1.90;;;;;;;;;;5021612;28;21264;-59
2021/11/21 11:19:45;;;;;;;10.75;1.40;;;;;;;;;;5021228;28;20025;-58
2021/11/21 11:22:12;;;;;;;18.40;2.33;;;;;;;;;;5021430;28;20554;-59
2021/11/21 11:24:41;;;;;;;15.63;1.30;;;;;;;;;;5020301;28;20040;-59
2021/11/21 11:27:27;;;;;;;12.32;2.05;;;;;;;;;;5014693;28;20084;-58
2021/11/21 11:29:54;;;;;;;12.57;1.75;;;;;;;;;;5016034;28;20029;-59
2021/11/21 11:32:20;;;;;;;19.17;1.98;;;;;;;;;;5021223;28;20029;-58
2021/11/21 11:34:46;;;;;;;14.18;1.38;;;;;;;;;;5018141;28;20033;-58
2021/11/21 11:37:14;;;;;;;10.85;1.30;;;;;;;;;;5025062;28;20068;-58
2021/11/21 11:39:45;;;;;;;18.77;2.17;;;;;;;;;;5021665;28;20022;-58
2021/11/21 11:42:34;;;;;;;16.90;2.53;;;;;;;;;;5019155;28;20042;-58
2021/11/21 11:45:01;;;;;;;20.25;1.48;;;;;;;;;;5015846;28;20065;-59
2021/11/21 11:47:28;;;;;;;13.90;1.45;;;;;;;;;;5011994;28;20068;-59
2021/11/21 11:49:54;;;;;;;13.85;3.47;;;;;;;;;;5019325;28;20523;-59
2021/11/21 11:53:10;;;;;;;14.30;1.85;;;;;;;;;;5019848;28;20079;-59
2021/11/21 11:55:36;;;;;;;14.23;2.25;;;;;;;;;;4995490;28;20433;-59
2021/11/21 11:58:01;;;;;;;17.05;1.95;;;;;;;;;;5020586;28;20164;-59
2021/11/21 12:00:33;;;;;;;9.57;1.52;;;;;;;;;;5010942;28;20022;-59
2021/11/21 12:02:59;;;;;;;9.65;1.40;;;;;;;;;;5019171;28;20113;-59
2021/11/21 12:05:31;;;;;;;7.80;1.27;;;;;;;;;;5012085;28;20350;-59
2021/11/21 12:08:17;;;;;;;13.80;1.77;;;;;;;;;;5019513;28;20523;-59
2021/11/21 12:10:51;;;;;;;9.50;1.27;;;;;;;;;;5022058;28;20033;-59
2021/11/21 12:13:35;;;;;;;12.13;1.10;;;;;;;;;;5018547;28;20058;-59
2021/11/21 12:16:13;;;;;;;25.38;2.60;;;;;;;;;;5015505;28;20080;-59
2021/11/21 12:18:57;;;;;;;14.27;1.02;;;;;;;;;;5018637;28;20025;-59
2021/11/21 12:21:41;;;;;;;12.30;1.73;;;;;;;;;;5012360;28;20132;-59
2021/11/21 12:24:20;;;;;;;17.17;1.50;;;;;;;;;;5022064;28;20534;-59
2021/11/21 12:26:46;;;;;;;29.45;4.15;;;;;;;;;;5017457;28;20028;-59
2021/11/21 12:29:29;;;;;;;12.18;2.58;;;;;;;;;;5016567;28;20026;-59
2021/11/21 12:31:56;;;;;;;10.25;1.70;;;;;;;;;;5014892;28;20065;-59
2021/11/21 12:34:35;;;;;;;14.43;2.47;;;;;;;;;;5017017;28;20037;-59
2021/11/21 12:37:17;;;;;;;18.02;3.03;;;;;;;;;;5020687;28;20033;-60
2021/11/21 12:39:48;;;;;;;19.00;2.33;;;;;;;;;;5018592;28;20053;-59
2021/11/21 12:42:19;;;;;;;9.38;2.05;;;;;;;;;;5015819;28;20125;-59
2021/11/21 12:44:45;;;;;;;9.98;1.30;;;;;;;;;;5019527;28;20026;-59
2021/11/21 12:47:11;;;;;;;9.52;1.05;;;;;;;;;;5013399;28;20066;-59
2021/11/21 12:49:40;;;;;;;10.13;1.27;;;;;;;;;;5016571;28;20263;-59
2021/11/21 12:52:10;;;;;;;8.50;1.15;;;;;;;;;;5017101;28;20025;-58
2021/11/21 12:54:37;;;;;;;15.45;0.82;;;;;;;;;;5013690;28;20108;-58
2021/11/21 12:57:03;;;;;;;13.93;1.25;;;;;;;;;;5017444;28;20025;-59
2021/11/21 12:59:48;;;;;;;13.70;1.90;;;;;;;;;;5019561;28;20424;-59
2021/11/21 13:02:16;;;;;;;5.88;1.38;;;;;;;;;;5018448;28;20053;-59
2021/11/21 13:04:57;;;;;;;9.15;1.58;;;;;;;;;;5023333;28;20023;-59
2021/11/21 13:07:26;;;;;;;11.55;1.52;;;;;;;;;;5018790;28;20029;-58
2021/11/21 13:10:07;;;;;;;10.20;1.25;;;;;;;;;;5017451;28;20029;-58
2021/11/21 13:12:37;;;;;;;4.78;1.20;;;;;;;;;;5016634;28;20025;-58
2021/11/21 13:15:10;;;;;;;9.18;1.33;;;;;;;;;;5013742;28;20165;-58
2021/11/21 13:17:36;;;;;;;14.63;2.42;;;;;;;;;;5014477;28;20032;-58
2021/11/21 13:20:11;;;;;;;9.73;1.33;;;;;;;;;;5020419;28;20018;-58
2021/11/21 13:23:00;;;;;;;11.85;1.75;;;;;;;;;;5016552;28;20273;-58
2021/11/21 13:25:28;;;;;;;13.10;1.50;;;;;;;;;;5012429;28;20558;-58
2021/11/21 13:28:27;;;;;;;17.02;1.85;;;;;;;;;;5017948;28;20469;-58
2021/11/21 13:30:59;;;;;;;14.45;2.08;;;;;;;;;;5019980;28;20099;-57
2021/11/21 13:33:36;;;;;;;22.33;2.45;;;;;;;;;;5015146;28;20049;-58
2021/11/21 13:36:10;;;;;;;14.02;1.83;;;;;;;;;;5017371;28;20187;-59
2021/11/21 13:38:36;;;;;;;16.85;1.83;;;;;;;;;;5020606;28;20121;-58
2021/11/21 13:41:01;;;;;;;11.23;2.00;;;;;;;;;;5021627;28;20100;-58
2021/11/21 13:43:44;;;;;;;12.40;1.80;;;;;;;;;;5012584;28;20065;-57
2021/11/21 13:46:10;;;;;;;;;;;;;;;;;;5016616;28;20034;-58
2021/11/21 13:48:37;;;;;;;20.25;1.65;;;;;;;;;;5018222;28;19967;-58
2021/11/21 13:51:13;;;;;;;13.57;1.48;;;;;;;;;;5021690;28;20044;-58
2021/11/21 13:53:45;;;;;;;22.38;2.25;;;;;;;;;;5017872;28;20571;-58
2021/11/21 13:56:12;;;;;;;;;;;;;;;;;;5015903;28;20120;-57
2021/11/21 13:58:37;;;;;;;8.98;1.83;;;;;;;;;;5015295;28;19920;-58
2021/11/21 14:01:23;;;;;;;8.48;2.00;;;;;;;;;;5019212;28;20025;-58
2021/11/21 14:03:55;;;;;;;15.52;3.08;;;;;;;;;;5014541;28;20021;-58
2021/11/21 14:06:32;;;;;;;6.45;2.30;;;;;;;;;;5018168;28;20083;-58
2021/11/21 14:08:58;;;;;;;21.55;2.95;;;;;;;;;;5020905;28;20087;-58
2021/11/21 14:11:32;;;;;;;21.35;2.40;;;;;;;;;;5016935;28;20025;-58
2021/11/21 14:14:26;;;;;;;22.63;3.38;;;;;;;;;;5022252;28;20033;-58
2021/11/21 14:16:54;;;;;;;11.55;2.65;;;;;;;;;;5007632;28;20037;-58
2021/11/21 14:19:31;;;;;;;13.80;2.50;;;;;;;;;;5017779;28;20038;-58
2021/11/21 14:22:09;;;;;;;11.35;2.22;;;;;;;;;;5015064;28;20065;-58
2021/11/21 14:24:36;;;;;;;19.50;2.92;;;;;;;;;;5019680;28;20033;-58
2021/11/21 14:27:10;;;;;;;11.27;2.22;;;;;;;;;;5017492;28;20025;-58
2021/11/21 14:29:36;;;;;;;15.43;2.53;;;;;;;;;;5017310;28;20034;-58
2021/11/21 14:32:04;;;;;;;18.85;1.75;;;;;;;;;;5018344;28;20042;-58
2021/11/21 14:34:31;;;;;;;14.23;2.58;;;;;;;;;;5014082;28;20029;-59
2021/11/21 14:36:57;;;;;;;7.88;1.75;;;;;;;;;;5020625;28;20450;-58
2021/11/21 14:39:27;;;;;;;11.50;2.17;;;;;;;;;;5020136;28;20648;-58